Time;durP1;ratioP1;P1;durP2;ratioP2;P2;SDS_P1;SDS_P2;PMS_P1;PMS_P2;Temp;Humidity;BMP_temperature;BMP_pressure;BME280_temperature;BME280_humidity;BME280_pressure;Samples;Min_cycle;Max_cycle;Signal;HPM_P1;HPM_P2
2022/01/07 00:00:19;;;;;;;;;29.67;26.33;;;;;2.90;78.53;99774.69;5017336;28;45345;-81
2022/01/07 00:02:47;;;;;;;;;25.33;23.00;;;;;2.88;78.87;99773.81;5033008;28;45458;-81
2022/01/07 00:05:14;;;;;;;;;26.00;21.67;;;;;2.85;78.44;99770.38;5030446;28;45487;-81
2022/01/07 00:07:40;;;;;;;;;26.33;24.00;;;;;2.83;78.52;99778.19;5032317;28;45524;-81
2022/01/07 00:10:08;;;;;;;;;21.67;20.67;;;;;2.77;78.42;99772.94;5032425;28;45385;-81
2022/01/07 00:12:33;;;;;;;;;31.33;25.67;;;;;2.76;78.69;99779.03;5029478;28;45882;-81
2022/01/07 00:14:59;;;;;;;;;20.67;19.33;;;;;2.74;78.51;99772.94;5035636;28;45379;-82
2022/01/07 00:17:24;;;;;;;;;25.67;23.33;;;;;2.72;78.37;99775.53;5025072;28;45346;-81
2022/01/07 00:19:50;;;;;;;;;23.33;19.00;;;;;2.69;78.41;99772.03;5020946;28;45419;-81
2022/01/07 00:22:15;;;;;;;;;27.00;22.67;;;;;2.64;78.34;99760.78;5024449;28;45912;-82
2022/01/07 00:24:41;;;;;;;;;21.67;21.00;;;;;2.62;78.70;99765.13;5028831;28;45454;-81
2022/01/07 00:27:07;;;;;;;;;27.33;24.67;;;;;2.59;79.02;99771.16;5031602;28;47677;-82
2022/01/07 00:29:32;;;;;;;;;26.33;20.67;;;;;2.57;78.92;99778.09;5035815;28;45337;-82
2022/01/07 00:31:57;;;;;;;;;27.33;23.00;;;;;2.53;78.69;99772.88;5028742;28;45556;-82
2022/01/07 00:34:23;;;;;;;;;29.33;26.33;;;;;2.50;79.01;99771.16;5042340;28;45533;-81
2022/01/07 00:36:48;;;;;;;;;24.33;21.00;;;;;2.47;78.97;99768.53;5029001;28;45839;-82
2022/01/07 00:39:14;;;;;;;;;32.00;24.00;;;;;2.44;79.40;99769.41;5028792;28;45718;-81
2022/01/07 00:41:39;;;;;;;;;19.33;18.33;;;;;2.43;79.06;99772.00;5024000;28;45479;-81
2022/01/07 00:44:05;;;;;;;;;22.67;22.33;;;;;2.43;79.18;99782.41;5040418;28;45525;-81
2022/01/07 00:46:30;;;;;;;;;23.67;23.00;;;;;2.40;79.06;99775.47;5028372;28;46899;-81
2022/01/07 00:48:56;;;;;;;;;26.67;24.33;;;;;2.40;79.26;99779.78;5022010;28;45288;-81
2022/01/07 00:51:21;;;;;;;;;26.67;23.33;;;;;2.38;79.28;99776.31;5016757;28;45503;-81
2022/01/07 00:53:46;;;;;;;;;22.00;18.00;;;;;2.37;79.15;99771.97;5030109;28;45447;-81
2022/01/07 00:56:13;;;;;;;;;31.33;23.00;;;;;2.34;79.11;99772.84;5028050;28;46514;-81
2022/01/07 00:58:38;;;;;;;;;25.67;20.67;;;;;2.34;78.56;99782.38;5028352;28;45461;-81
2022/01/07 01:01:04;;;;;;;;;26.00;22.67;;;;;2.32;78.71;99774.56;5024435;28;45518;-82
2022/01/07 01:03:29;;;;;;;;;21.00;18.33;;;;;2.31;78.48;99779.78;5034897;28;45528;-81
2022/01/07 01:05:58;;;;;;;;;24.00;23.33;;;;;2.29;79.00;99782.38;5036117;28;46069;-81
2022/01/07 01:08:24;;;;;;;;;22.33;21.33;;;;;2.28;78.95;99778.03;5021414;28;45428;-82
2022/01/07 01:10:49;;;;;;;;;19.67;18.00;;;;;2.27;78.87;99778.03;5027726;28;45333;-82
2022/01/07 01:13:14;;;;;;;;;20.00;17.67;;;;;2.25;78.80;99778.00;5044989;28;45423;-81
2022/01/07 01:15:40;;;;;;;;;27.00;21.67;;;;;2.24;79.10;99791.88;5025950;28;47274;-81
2022/01/07 01:18:05;;;;;;;;;19.67;18.33;;;;;2.23;79.06;99792.75;5031128;28;45416;-81
2022/01/07 01:20:32;;;;;;;;;22.33;18.33;;;;;2.22;78.95;99790.13;5043497;28;45828;-80
2022/01/07 01:22:58;;;;;;;;;25.00;21.00;;;;;2.18;78.83;99796.19;5031913;28;45556;-81
2022/01/07 01:25:24;;;;;;;;;17.67;17.67;;;;;2.15;79.04;99786.66;5015810;28;46304;-81
2022/01/07 01:27:49;;;;;;;;;25.00;23.00;;;;;2.15;79.40;99789.25;5057826;28;45426;-81
2022/01/07 01:30:19;;;;;;;;;23.00;22.00;;;;;2.12;79.40;99784.03;5036066;28;45484;-81
2022/01/07 01:32:49;;;;;;;;;26.00;22.33;;;;;2.10;79.51;99783.16;5036678;28;45412;-81
2022/01/07 01:35:16;;;;;;;;;24.67;21.67;;;;;2.09;79.37;99787.47;5044118;28;45522;-81
2022/01/07 01:37:41;;;;;;;;;22.33;18.33;;;;;2.06;79.54;99800.47;5021723;28;45483;-81
2022/01/07 01:40:08;;;;;;;;;23.00;19.67;;;;;2.04;79.37;99790.91;5027450;28;45249;-81
2022/01/07 01:42:34;;;;;;;;;24.33;21.67;;;;;2.03;79.50;99791.78;5039133;28;45185;-82
2022/01/07 01:45:00;;;;;;;;;20.33;18.33;;;;;2.00;79.52;99794.38;5027130;28;45476;-81
2022/01/07 01:47:25;;;;;;;;;22.67;21.00;;;;;1.97;79.81;99795.22;5027661;28;45417;-81
2022/01/07 01:49:51;;;;;;;;;26.00;20.67;;;;;1.94;79.82;99800.41;5024373;28;45233;-82
2022/01/07 01:52:16;;;;;;;;;20.33;18.67;;;;;1.94;79.64;99804.75;5020750;28;45463;-81
2022/01/07 01:54:45;;;;;;;;;23.67;20.67;;;;;1.92;79.58;99802.13;5025931;28;47159;-81
2022/01/07 01:57:11;;;;;;;;;22.33;21.67;;;;;1.92;79.96;99809.06;5030275;28;45482;-82
2022/01/07 01:59:37;;;;;;;;;23.33;20.33;;;;;1.92;79.50;99809.06;5035516;28;45457;-81
2022/01/07 02:02:02;;;;;;;;;21.67;18.00;;;;;1.92;79.96;99803.84;5026363;28;45371;-82
2022/01/07 02:04:29;;;;;;;;;24.00;20.00;;;;;1.93;79.57;99816.00;5037188;28;46367;-82
2022/01/07 02:06:55;;;;;;;;;23.00;20.67;;;;;1.92;79.61;99814.25;5028051;28;45773;-82
2022/01/07 02:09:27;;;;;;;;;5.67;2.33;;;;;1.91;79.84;99813.38;5046471;27;45634;-81
2022/01/07 02:11:52;;;;;;;;;22.00;17.67;;;;;1.90;79.58;99806.44;5022636;28;45354;-82
2022/01/07 02:14:18;;;;;;;;;25.67;20.67;;;;;1.89;79.93;99802.09;5033592;28;48273;-81
2022/01/07 02:16:43;;;;;;;;;24.33;22.33;;;;;1.90;79.93;99792.56;5021953;28;45405;-81
2022/01/07 02:19:09;;;;;;;;;26.00;20.67;;;;;1.90;80.18;99800.38;5035312;28;45361;-82
2022/01/07 02:21:38;;;;;;;;;21.33;21.00;;;;;1.90;80.28;99798.66;5021816;28;45369;-81
2022/01/07 02:24:05;;;;;;;;;25.33;21.00;;;;;1.89;80.28;99796.91;5024573;28;45530;-82
2022/01/07 02:26:35;;;;;;;;;25.33;20.67;;;;;1.88;80.35;99800.38;5031768;28;45395;-81
2022/01/07 02:29:01;;;;;;;;;20.33;20.33;;;;;1.86;80.56;99796.88;5025147;28;45275;-82
2022/01/07 02:31:27;;;;;;;;;24.33;23.00;;;;;1.85;80.38;99789.06;5031601;28;45514;-81
2022/01/07 02:33:53;;;;;;;;;26.33;25.00;;;;;1.83;80.09;99791.69;5024311;28;45927;-81
2022/01/07 02:36:19;;;;;;;;;22.33;19.33;;;;;1.81;80.40;99788.22;5043397;28;45734;-81
2022/01/07 02:38:44;;;;;;;;;23.00;20.33;;;;;1.80;80.51;99786.47;5038332;28;46386;-81
2022/01/07 02:41:10;;;;;;;;;26.00;23.00;;;;;1.77;80.45;99789.03;5020888;28;45625;-82
2022/01/07 02:43:36;;;;;;;;;21.00;18.67;;;;;1.74;80.74;99789.91;5024999;28;45959;-81
2022/01/07 02:46:01;;;;;;;;;25.00;23.33;;;;;1.69;80.30;99777.72;5027794;28;45696;-82
2022/01/07 02:48:27;;;;;;;;;24.33;18.33;;;;;1.66;80.31;99778.59;5040114;28;45255;-81
2022/01/07 02:50:53;;;;;;;;;20.33;19.33;;;;;1.63;80.29;99780.31;5051753;28;45391;-82
2022/01/07 02:53:18;;;;;;;;;23.33;22.33;;;;;1.61;81.10;99789.81;5025564;28;46174;-81
2022/01/07 02:55:45;;;;;;;;;19.33;19.33;;;;;1.59;80.63;99787.19;5017404;28;45325;-82
2022/01/07 02:58:11;;;;;;;;;23.67;20.67;;;;;1.57;80.89;99786.31;5029761;28;45465;-81
2022/01/07 03:00:37;;;;;;;;;19.33;16.67;;;;;1.54;80.92;99778.50;5018134;28;45382;-81
2022/01/07 03:03:04;;;;;;;;;17.67;14.67;;;;;1.52;80.88;99775.03;5022679;28;48171;-81
2022/01/07 03:05:30;;;;;;;;;21.00;21.00;;;;;1.49;81.08;99780.22;5031740;28;45425;-81
2022/01/07 03:07:56;;;;;;;;;30.33;25.67;;;;;1.46;80.87;99772.41;5022744;28;45501;-81
2022/01/07 03:10:29;;;;;;;;;29.33;26.33;;;;;1.47;81.21;99774.13;5019644;28;45464;-81
2022/01/07 03:12:56;;;;;;;;;23.67;18.33;;;;;1.45;81.31;99768.06;5045140;28;45825;-81
2022/01/07 03:15:22;;;;;;;;;21.67;21.33;;;;;1.44;81.21;99773.25;5037227;28;45337;-82
2022/01/07 03:17:47;;;;;;;;;29.67;22.00;;;;;1.44;81.31;99774.13;5042226;28;45692;-82
2022/01/07 03:20:16;;;;;;;;;32.00;30.00;;;;;1.43;81.36;99769.78;5033286;28;45432;-81
2022/01/07 03:22:42;;;;;;;;;35.00;27.33;;;;;1.42;81.32;99768.03;5036477;28;45556;-82
2022/01/07 03:25:08;;;;;;;;;30.00;24.00;;;;;1.43;81.04;99772.38;5054136;28;45273;-81
2022/01/07 03:27:34;;;;;;;;;26.33;21.00;;;;;1.42;81.76;99770.63;5054400;28;45447;-81
2022/01/07 03:30:00;;;;;;;;;24.67;21.00;;;;;1.40;81.55;99777.53;5031122;28;45428;-81
2022/01/07 03:32:25;;;;;;;;;27.67;25.67;;;;;1.37;81.50;99778.38;5033192;28;47922;-81
2022/01/07 03:34:52;;;;;;;;;25.33;22.67;;;;;1.34;81.69;99785.31;5049479;28;45407;-81
2022/01/07 03:37:17;;;;;;;;;19.67;18.67;;;;;1.31;81.85;99780.97;5030055;28;45213;-81
2022/01/07 03:39:43;;;;;;;;;21.67;21.67;;;;;1.27;81.92;99779.19;5029065;28;45442;-81
2022/01/07 03:42:09;;;;;;;;;21.33;19.33;;;;;1.26;81.74;99789.56;5025962;28;45312;-81
2022/01/07 03:44:34;;;;;;;;;24.67;22.67;;;;;1.24;81.49;99781.75;5027998;28;45342;-81
2022/01/07 03:47:00;;;;;;;;;21.33;19.67;;;;;1.23;81.52;99774.81;5025733;28;45237;-81
2022/01/07 03:49:25;;;;;;;;;22.33;20.00;;;;;1.21;81.32;99776.53;5020781;28;45320;-81
2022/01/07 03:51:50;;;;;;;;;24.00;18.67;;;;;1.20;81.81;99774.78;5030167;28;45367;-81
2022/01/07 03:54:16;;;;;;;;;23.67;19.00;;;;;1.18;81.50;99779.09;5030667;28;45221;-81
2022/01/07 03:56:41;;;;;;;;;16.67;15.00;;;;;1.17;81.59;99779.97;5025631;28;45167;-81
2022/01/07 03:59:07;;;;;;;;;20.33;14.67;;;;;1.16;81.50;99783.44;5024214;28;45427;-81
2022/01/07 04:01:32;;;;;;;;;24.33;18.00;;;;;1.14;81.55;99784.28;5036852;28;45604;-81
2022/01/07 04:03:58;;;;;;;;;20.00;19.00;;;;;1.10;81.52;99787.69;5032866;28;45466;-81
2022/01/07 04:06:23;;;;;;;;;15.00;14.00;;;;;1.09;81.62;99784.22;5028646;28;45404;-81
2022/01/07 04:08:49;;;;;;;;;20.33;18.00;;;;;1.08;81.98;99772.09;5031566;28;45312;-80
2022/01/07 04:11:15;;;;;;;;;23.00;19.33;;;;;1.07;82.29;99772.09;5026554;28;47005;-80
2022/01/07 04:13:41;;;;;;;;;22.00;18.00;;;;;1.10;81.86;99774.72;5023636;28;45420;-81
2022/01/07 04:16:07;;;;;;;;;24.67;20.67;;;;;1.11;81.97;99779.06;5026122;28;45422;-81
2022/01/07 04:18:32;;;;;;;;;24.33;21.33;;;;;1.10;81.88;99773.00;5017177;28;45416;-81
2022/01/07 04:20:58;;;;;;;;;20.67;20.00;;;;;1.10;81.64;99772.13;5027960;28;46175;-81
2022/01/07 04:23:23;;;;;;;;;18.00;18.00;;;;;1.11;81.59;99782.53;5046426;28;45417;-80
2022/01/07 04:25:49;;;;;;;;;17.67;17.33;;;;;1.09;81.28;99776.44;5025632;28;45393;-80
2022/01/07 04:28:14;;;;;;;;;27.33;22.33;;;;;1.09;81.78;99783.34;5044578;28;45496;-81
2022/01/07 04:30:43;;;;;;;;;24.33;22.00;;;;;1.06;81.67;99784.19;5036874;28;45597;-81
2022/01/07 04:33:10;;;;;;;;;27.00;20.33;;;;;1.03;81.91;99786.75;5033127;28;45460;-80
2022/01/07 04:35:37;;;;;;;;;26.33;22.33;;;;;1.04;82.15;99796.28;5026264;28;45377;-81
2022/01/07 04:38:04;;;;;;;;;19.67;17.00;;;;;1.02;81.97;99788.50;5032401;28;45380;-81
2022/01/07 04:40:31;;;;;;;;;23.67;20.00;;;;;1.02;82.30;99782.44;5016181;28;45397;-81
2022/01/07 04:42:57;;;;;;;;;23.33;20.67;;;;;1.01;82.43;99788.47;5040869;28;45442;-81
2022/01/07 04:45:23;;;;;;;;;32.00;26.67;;;;;1.02;82.03;99795.41;5025564;28;45431;-81
2022/01/07 04:47:48;;;;;;;;;24.33;22.33;;;;;1.03;82.35;99786.75;5041451;28;45620;-81
2022/01/07 04:50:18;;;;;;;;;25.33;23.33;;;;;1.03;82.44;99790.22;5025681;28;46276;-81
2022/01/07 04:52:44;;;;;;;;;19.67;18.33;;;;;1.04;82.21;99785.91;5021655;28;45274;-81
2022/01/07 04:55:16;;;;;;;;;20.67;17.33;;;;;1.05;82.29;99790.25;5024773;28;45265;-81
2022/01/07 04:57:42;;;;;;;;;20.33;19.33;;;;;1.05;82.29;99792.84;5040172;28;45520;-81
2022/01/07 05:00:09;;;;;;;;;25.33;21.00;;;;;1.07;82.12;99790.25;5034351;28;48405;-81
2022/01/07 05:02:34;;;;;;;;;20.67;17.67;;;;;1.10;81.88;99792.88;5026235;28;45362;-81
2022/01/07 05:04:59;;;;;;;;;24.67;22.00;;;;;1.10;82.17;99801.56;5023612;28;45359;-81
2022/01/07 05:07:25;;;;;;;;;16.00;15.67;;;;;1.16;81.87;99811.13;5023224;28;45401;-81
2022/01/07 05:09:50;;;;;;;;;20.67;19.00;;;;;1.19;81.81;99808.53;5035497;28;45421;-81
2022/01/07 05:12:16;;;;;;;;;21.33;20.33;;;;;1.22;81.98;99813.75;5022786;28;45346;-81
2022/01/07 05:14:41;;;;;;;;;18.67;14.00;;;;;1.24;81.71;99812.03;5022519;28;45411;-81
2022/01/07 05:17:07;;;;;;;;;18.67;17.33;;;;;1.26;81.81;99810.34;5021565;28;45676;-82
2022/01/07 05:19:32;;;;;;;;;19.67;16.00;;;;;1.27;81.62;99810.34;5023602;28;45529;-81
2022/01/07 05:21:58;;;;;;;;;23.33;19.00;;;;;1.31;81.66;99814.72;5032571;28;45422;-81
2022/01/07 05:24:23;;;;;;;;;25.67;18.33;;;;;1.33;81.77;99813.00;5023728;28;45686;-81
2022/01/07 05:26:48;;;;;;;;;17.67;16.33;;;;;1.34;81.08;99814.72;5015801;28;45385;-81
2022/01/07 05:29:14;;;;;;;;;20.67;18.33;;;;;1.38;81.13;99807.81;5026142;28;48214;-82
2022/01/07 05:31:39;;;;;;;;;27.67;22.33;;;;;1.40;81.30;99814.78;5022358;28;45265;-81
2022/01/07 05:34:05;;;;;;;;;20.00;18.00;;;;;1.40;81.18;99811.31;5023227;28;45310;-81
2022/01/07 05:36:30;;;;;;;;;20.00;20.00;;;;;1.41;80.82;99810.44;5031625;28;45398;-81
2022/01/07 05:38:56;;;;;;;;;21.33;20.33;;;;;1.39;80.83;99810.44;5039794;28;47328;-81
2022/01/07 05:41:21;;;;;;;;;18.00;18.00;;;;;1.39;81.06;99809.56;5015941;28;45369;-82
2022/01/07 05:43:47;;;;;;;;;22.67;19.67;;;;;1.39;81.04;99804.38;5056107;28;45428;-81
2022/01/07 05:46:15;;;;;;;;;21.67;17.00;;;;;1.40;80.83;99811.31;5021296;28;45363;-81
2022/01/07 05:48:45;;;;;;;;;17.00;14.67;;;;;1.40;80.74;99806.97;5041525;28;47386;-81
2022/01/07 05:51:10;;;;;;;;;20.33;16.33;;;;;1.38;80.69;99810.41;5022040;28;45512;-81
2022/01/07 05:53:37;;;;;;;;;20.67;20.00;;;;;1.38;80.61;99810.41;5038022;28;45342;-81
2022/01/07 05:56:03;;;;;;;;;22.67;19.67;;;;;1.36;80.88;99806.94;5021576;28;45440;-81
2022/01/07 05:58:28;;;;;;;;;21.00;20.33;;;;;1.34;81.12;99819.06;5035239;28;46349;-81
2022/01/07 06:00:54;;;;;;;;;15.00;15.00;;;;;1.33;80.80;99817.34;5032746;28;45270;-81
2022/01/07 06:03:19;;;;;;;;;21.00;17.33;;;;;1.31;80.78;99819.91;5025277;28;45310;-82
2022/01/07 06:05:44;;;;;;;;;17.33;16.00;;;;;1.30;81.31;99820.78;5017471;28;45393;-82
2022/01/07 06:08:10;;;;;;;;;25.00;16.00;;;;;1.28;80.51;99817.28;5015117;28;46249;-81
2022/01/07 06:10:36;;;;;;;;;16.00;14.33;;;;;1.27;80.79;99817.28;5015206;28;45387;-81
2022/01/07 06:13:01;;;;;;;;;19.33;17.00;;;;;1.25;81.08;99819.84;5022186;28;45397;-81
2022/01/07 06:15:27;;;;;;;;;16.33;14.67;;;;;1.24;81.04;99823.31;5026822;28;45229;-81
2022/01/07 06:17:52;;;;;;;;;24.00;19.67;;;;;1.23;80.78;99826.75;5013566;28;46701;-82
2022/01/07 06:20:19;;;;;;;;;23.33;20.67;;;;;1.21;80.66;99827.59;5028210;28;45456;-81
2022/01/07 06:22:45;;;;;;;;;24.67;17.00;;;;;1.20;80.99;99828.44;5030167;28;45472;-81
2022/01/07 06:25:10;;;;;;;;;18.33;15.67;;;;;1.17;80.93;99818.94;5018581;28;45546;-82
2022/01/07 06:27:38;;;;;;;;;22.33;17.67;;;;;1.16;81.17;99831.91;5034418;28;45518;-82
2022/01/07 06:30:05;;;;;;;;;20.33;20.00;;;;;1.14;81.65;99834.47;5029451;28;45295;-82
2022/01/07 06:32:30;;;;;;;;;25.00;21.00;;;;;1.11;81.65;99831.84;5034202;28;45364;-82
2022/01/07 06:34:55;;;;;;;;;17.00;16.00;;;;;1.10;81.48;99834.44;5040281;28;45613;-81
2022/01/07 06:37:21;;;;;;;;;19.67;17.67;;;;;1.07;81.59;99837.00;5036583;28;45757;-82
2022/01/07 06:39:48;;;;;;;;;24.00;22.33;;;;;1.07;81.98;99834.41;5027470;28;45433;-82
2022/01/07 06:42:14;;;;;;;;;19.33;19.33;;;;;1.04;81.90;99833.50;5027742;28;45476;-82
2022/01/07 06:44:39;;;;;;;;;18.00;16.33;;;;;1.04;81.71;99838.69;5029737;27;45611;-82
2022/01/07 06:47:05;;;;;;;;;20.00;19.67;;;;;1.03;81.49;99836.09;5034484;28;47178;-82
2022/01/07 06:49:31;;;;;;;;;22.00;19.00;;;;;1.03;81.37;99839.56;5029358;28;45339;-82
2022/01/07 06:51:57;;;;;;;;;23.33;23.33;;;;;1.01;81.93;99843.00;5024404;28;45490;-80
2022/01/07 06:54:24;;;;;;;;;21.67;16.67;;;;;1.05;81.95;99843.03;5022534;28;45537;-66
2022/01/07 06:56:49;;;;;;;;;21.00;16.67;;;;;1.14;81.90;99850.06;5034270;28;45434;-66
2022/01/07 06:59:15;;;;;;;;;22.67;18.33;;;;;1.21;81.81;99845.78;5032709;28;45171;-65
2022/01/07 07:01:41;;;;;;;;;25.67;24.33;;;;;1.27;81.50;99851.03;5025667;28;45468;-66
2022/01/07 07:04:07;;;;;;;;;19.00;16.33;;;;;1.32;81.42;99851.97;5033259;28;45457;-65
2022/01/07 07:06:34;;;;;;;;;19.00;17.33;;;;;1.37;81.15;99858.03;5031702;28;47347;-66
2022/01/07 07:09:00;;;;;;;;;26.33;22.67;;;;;1.41;80.99;99870.19;5033753;28;45479;-65
2022/01/07 07:11:25;;;;;;;;;23.67;17.00;;;;;1.42;81.26;99868.47;5029366;28;45936;-66
2022/01/07 07:13:50;;;;;;;;;24.00;22.33;;;;;1.42;81.13;99871.94;5041421;28;45756;-66
2022/01/07 07:16:16;;;;;;;;;23.00;17.67;;;;;1.42;80.88;99877.13;5029975;28;45420;-66
2022/01/07 07:18:41;;;;;;;;;14.33;7.67;;;;;1.43;80.72;99880.59;5036629;28;45606;-66
2022/01/07 07:21:07;;;;;;;;;21.00;16.00;;;;;1.41;80.83;99883.19;5029414;28;45722;-66
2022/01/07 07:23:32;;;;;;;;;15.00;12.00;;;;;1.39;80.74;99879.72;5028531;28;46999;-66
2022/01/07 07:25:59;;;;;;;;;20.67;18.33;;;;;1.39;80.69;99877.09;5028343;28;45527;-65
2022/01/07 07:28:25;;;;;;;;;15.33;14.67;;;;;1.40;80.47;99876.25;5030236;28;45322;-66
2022/01/07 07:30:53;;;;;;;;;17.33;17.33;;;;;1.40;80.37;99879.72;5028166;28;45314;-66
2022/01/07 07:38:32;;;;;;;;;19.33;17.00;;;;;1.43;79.98;99872.81;5031215;28;45411;-66
2022/01/07 07:40:58;;;;;;;;;21.33;16.00;;;;;1.42;79.80;99874.53;5033391;28;45368;-66
2022/01/07 07:43:24;;;;;;;;;26.67;24.33;;;;;1.40;80.10;99877.13;5045014;28;45508;-66
2022/01/07 07:45:49;;;;;;;;;27.00;19.67;;;;;1.41;80.02;99890.97;5023559;28;46340;-66
2022/01/07 07:48:15;;;;;;;;;30.00;19.33;;;;;1.42;80.17;99897.91;5043050;28;45324;-66
2022/01/07 07:50:40;;;;;;;;;27.67;23.67;;;;;1.40;79.89;99895.31;5023733;28;45275;-66
2022/01/07 07:53:06;;;;;;;;;24.67;20.67;;;;;1.41;80.13;99896.19;5034908;28;45544;-66
2022/01/07 07:55:31;;;;;;;;;22.67;22.33;;;;;1.40;80.10;99897.91;5024640;28;47828;-66
2022/01/07 07:57:56;;;;;;;;;24.67;23.00;;;;;1.43;80.09;99896.19;5034179;28;45386;-66
2022/01/07 08:00:22;;;;;;;;;22.00;20.67;;;;;1.47;80.28;99891.06;5020987;28;45741;-65
2022/01/07 08:02:47;;;;;;;;;25.67;18.67;;;;;1.50;80.15;99890.22;5032123;28;45456;-66
2022/01/07 08:05:13;;;;;;;;;24.67;20.00;;;;;1.52;80.03;99888.47;5042831;28;45431;-68
2022/01/07 08:07:40;;;;;;;;;23.33;20.33;;;;;1.54;79.97;99885.03;5033053;28;45444;-66
2022/01/07 08:10:06;;;;;;;;;30.67;23.33;;;;;1.57;80.23;99876.38;5043624;28;45410;-66
2022/01/07 08:17:59;;;;;;;;;23.00;21.33;;;;;1.68;79.46;99879.94;5038216;28;45590;-66
2022/01/07 08:20:25;;;;;;;;;21.00;21.00;;;;;1.67;79.16;99875.63;5033029;28;45717;-66
2022/01/07 08:22:51;;;;;;;;;20.33;18.33;;;;;1.67;79.23;99879.09;5033064;28;45570;-67
2022/01/07 08:25:16;;;;;;;;;20.67;20.67;;;;;1.69;79.30;99879.94;5029334;28;45385;-66
2022/01/07 08:27:42;;;;;;;;;21.67;20.00;;;;;1.72;79.30;99882.56;5028626;28;45554;-66
2022/01/07 08:30:21;;;;;;;;;23.67;22.67;;;;;1.75;78.63;99879.13;5030708;28;45405;-66
2022/01/07 08:35:31;;;;;;;;;25.33;22.00;;;;;1.77;79.18;99867.03;5033667;28;45438;-66
2022/01/07 08:37:57;;;;;;;;;22.00;18.67;;;;;1.80;78.92;99867.06;5023157;28;45401;-67
2022/01/07 08:40:23;;;;;;;;;29.33;23.00;;;;;1.82;78.89;99867.06;5025756;28;45385;-66
2022/01/07 08:42:50;;;;;;;;;24.00;19.67;;;;;1.84;78.86;99868.81;5031260;28;45645;-66
2022/01/07 08:45:16;;;;;;;;;26.00;23.00;;;;;1.86;79.11;99874.00;5034787;28;46588;-66
2022/01/07 08:47:41;;;;;;;;;26.00;24.33;;;;;1.86;78.83;99866.19;5036734;28;45503;-66
2022/01/07 08:50:07;;;;;;;;;24.67;22.67;;;;;1.87;78.70;99875.75;5033962;28;45787;-66
2022/01/07 08:52:32;;;;;;;;;26.00;21.00;;;;;1.88;78.13;99875.75;5027515;28;45898;-66
2022/01/07 08:54:58;;;;;;;;;27.00;24.67;;;;;1.90;78.07;99875.78;5034027;28;46148;-68
2022/01/07 08:57:23;;;;;;;;;23.33;23.00;;;;;1.93;78.66;99878.41;5022687;28;45418;-67
2022/01/07 08:59:49;;;;;;;;;27.67;23.67;;;;;1.97;78.92;99882.75;5032248;28;45398;-67
2022/01/07 09:02:15;;;;;;;;;25.00;19.67;;;;;2.01;78.86;99884.53;5035104;28;45656;-66
2022/01/07 09:04:40;;;;;;;;;24.00;21.67;;;;;2.03;78.63;99893.19;5044452;28;46017;-66
2022/01/07 09:07:06;;;;;;;;;28.00;21.00;;;;;2.05;78.32;99892.34;5029669;28;45373;-65
2022/01/07 09:09:31;;;;;;;;;32.33;28.00;;;;;2.08;77.54;99883.69;5041098;28;45377;-65
2022/01/07 09:11:57;;;;;;;;;20.00;20.00;;;;;2.10;77.36;99889.78;5031198;28;45540;-65
2022/01/07 09:14:23;;;;;;;;;17.00;17.00;;;;;2.14;77.73;99888.06;5044074;27;46534;-65
2022/01/07 09:16:49;;;;;;;;;30.00;24.00;;;;;2.18;77.63;99889.84;5024999;28;45980;-65
2022/01/07 09:19:14;;;;;;;;;24.33;21.00;;;;;2.22;77.60;99889.84;5042068;28;45749;-65
2022/01/07 09:21:39;;;;;;;;;22.67;22.67;;;;;2.27;77.74;99882.06;5023359;28;45514;-65
2022/01/07 09:24:05;;;;;;;;;21.67;20.00;;;;;2.31;77.73;99889.91;5037821;28;46124;-65
2022/01/07 09:26:31;;;;;;;;;26.33;19.33;;;;;2.37;77.60;99889.91;5024828;28;45639;-65
2022/01/07 09:28:56;;;;;;;;;30.67;19.67;;;;;2.42;78.49;99888.22;5041875;28;45443;-65
2022/01/07 09:31:21;;;;;;;;;29.33;24.00;;;;;2.45;77.87;99890.84;5037558;28;45597;-65
2022/01/07 09:33:47;;;;;;;;;22.00;19.33;;;;;2.49;77.70;99888.25;5029000;28;46208;-65
2022/01/07 09:36:12;;;;;;;;;32.00;29.33;;;;;2.53;77.44;99887.38;5016984;28;45461;-65
2022/01/07 09:38:38;;;;;;;;;26.67;24.00;;;;;2.56;77.47;99882.19;5029144;28;45397;-65
2022/01/07 09:41:05;;;;;;;;;30.33;26.67;;;;;2.59;77.24;99874.41;5022240;28;45461;-65
2022/01/07 09:43:31;;;;;;;;;31.00;24.00;;;;;2.63;77.65;99871.84;5043151;28;46118;-65
2022/01/07 09:45:56;;;;;;;;;17.33;13.33;;;;;2.66;77.32;99870.97;5019376;28;45428;-65
2022/01/07 09:48:22;;;;;;;;;28.33;25.67;;;;;2.72;77.71;99876.19;5039688;28;45368;-65
2022/01/07 09:50:47;;;;;;;;;29.33;27.33;;;;;2.76;77.53;99884.03;5021051;28;45523;-65
2022/01/07 09:53:15;;;;;;;;;32.00;26.33;;;;;2.86;77.49;99886.66;5033068;28;47201;-65
2022/01/07 09:55:42;;;;;;;;;29.67;27.00;;;;;2.93;77.02;99883.22;5020436;28;45404;-64
2022/01/07 09:58:10;;;;;;;;;29.33;27.67;;;;;3.01;76.72;99887.59;5031277;28;45715;-65
2022/01/07 10:00:42;;;;;;;;;23.67;23.67;;;;;3.10;76.53;99885.00;5022243;28;45678;-65
2022/01/07 10:03:10;;;;;;;;;25.00;22.33;;;;;3.19;76.56;99891.94;5033264;28;45460;-65
2022/01/07 10:05:49;;;;;;;;;23.00;22.33;;;;;3.34;76.81;99896.34;5043541;28;45383;-65
2022/01/07 10:08:17;;;;;;;;;25.00;24.00;;;;;3.45;75.82;99897.19;5031778;28;45617;-65
2022/01/07 10:10:43;;;;;;;;;22.00;20.33;;;;;3.56;75.56;99890.25;5037897;28;45344;-65
2022/01/07 10:13:09;;;;;;;;;19.67;19.67;;;;;3.70;75.92;99898.06;5034497;28;45480;-65
2022/01/07 10:15:37;;;;;;;;;26.00;20.67;;;;;3.82;75.14;99891.13;5035280;28;45373;-65
2022/01/07 10:18:07;;;;;;;;;24.33;20.00;;;;;3.97;75.00;99884.16;5032767;28;47552;-65
2022/01/07 10:20:38;;;;;;;;;27.00;19.00;;;;;4.12;74.82;99878.91;5036637;28;45426;-65
2022/01/07 10:23:17;;;;;;;;;29.33;25.00;;;;;4.28;74.05;99871.91;5024499;28;47156;-65
2022/01/07 10:25:47;;;;;;;;;26.33;22.67;;;;;4.40;74.28;99875.34;5030034;28;45523;-65
2022/01/07 10:28:15;;;;;;;;;26.67;24.00;;;;;4.48;74.37;99870.13;5032889;28;45340;-65
2022/01/07 10:30:46;;;;;;;;;22.67;22.00;;;;;4.50;73.69;99866.63;5027294;28;45476;-65
2022/01/07 10:33:29;;;;;;;;;26.67;25.00;;;;;4.61;73.61;99863.97;5035213;28;46177;-65
2022/01/07 10:36:14;;;;;;;;;21.67;21.00;;;;;4.76;72.95;99863.88;5026178;28;45436;-65
2022/01/07 10:39:00;;;;;;;;;25.67;24.00;;;;;4.86;72.28;99854.25;5022588;28;45465;-65
2022/01/07 10:41:25;;;;;;;;;29.67;26.33;;;;;4.96;71.83;99857.69;5016631;28;45307;-65
2022/01/07 10:43:52;;;;;;;;;24.33;21.33;;;;;4.99;73.16;99857.69;5043796;28;45387;-65
2022/01/07 10:46:19;;;;;;;;;34.67;28.00;;;;;5.01;72.30;99858.53;5014776;28;45415;-66
2022/01/07 10:48:53;;;;;;;;;22.67;20.33;;;;;5.01;72.50;99858.53;5042053;28;45508;-66
2022/01/07 10:51:23;;;;;;;;;32.33;28.67;;;;;5.02;70.59;99863.78;5027243;28;45432;-64
2022/01/07 10:54:11;;;;;;;;;28.00;26.67;;;;;5.07;71.98;99854.13;5039242;28;46318;-64
2022/01/07 10:56:48;;;;;;;;;18.33;14.67;;;;;5.03;69.47;99860.25;5030323;28;45508;-64
2022/01/07 10:59:20;;;;;;;;;18.33;16.00;;;;;4.91;69.88;99850.75;5041926;28;45527;-63
2022/01/07 11:01:48;;;;;;;;;23.33;22.33;;;;;4.87;69.82;99856.84;5031545;28;45471;-65
2022/01/07 11:04:22;;;;;;;;;23.00;17.67;;;;;4.89;70.54;99859.47;5040142;28;46631;-65
2022/01/07 11:06:51;;;;;;;;;16.67;15.67;;;;;4.93;69.71;99852.47;5028124;28;45575;-65
2022/01/07 11:09:18;;;;;;;;;21.67;18.33;;;;;4.93;70.35;99852.47;5036690;28;45592;-65
2022/01/07 11:12:06;;;;;;;;;17.33;15.67;;;;;4.85;71.26;99850.81;5024544;28;45365;-65
2022/01/07 11:14:36;;;;;;;;;17.00;17.00;;;;;4.81;70.21;99849.06;5040682;28;47983;-65
2022/01/07 11:17:04;;;;;;;;;19.67;16.00;;;;;4.75;69.20;99850.84;5028501;28;45712;-67
2022/01/07 11:19:37;;;;;;;;;18.00;16.67;;;;;4.69;69.29;99848.28;5043614;28;45473;-65
2022/01/07 11:22:04;;;;;;;;;25.00;19.33;;;;;4.70;70.41;99848.22;5038663;28;45715;-65
2022/01/07 11:24:42;;;;;;;;;16.33;16.00;;;;;4.72;70.28;99846.50;5041901;28;45375;-65
2022/01/07 11:27:22;;;;;;;;;20.67;17.00;;;;;4.76;70.03;99834.28;5038520;28;45297;-65
2022/01/07 11:29:52;;;;;;;;;19.33;13.00;;;;;4.83;69.73;99828.16;5032586;28;45499;-65
2022/01/07 11:32:33;;;;;;;;;18.33;17.67;;;;;4.88;70.21;99827.25;5029111;28;45564;-65
2022/01/07 11:35:23;;;;;;;;;24.00;19.67;;;;;4.95;70.07;99822.84;5035105;28;46573;-66